sensor_id;sensor_type;location;lat;lon;timestamp;P1;durP1;ratioP1;P2;durP2;ratioP2
62933;SDS011;49038;47.600;19.242;2023-04-06T00:02:19;3.08;;;2.78;;
62933;SDS011;49038;47.600;19.242;2023-04-06T00:05:22;3.25;;;2.53;;
62933;SDS011;49038;47.600;19.242;2023-04-06T00:08:25;2.78;;;2.58;;
62933;SDS011;49038;47.600;19.242;2023-04-06T00:11:28;3.00;;;2.28;;
62933;SDS011;49038;47.600;19.242;2023-04-06T00:14:30;3.17;;;2.87;;
62933;SDS011;49038;47.600;19.242;2023-04-06T00:17:32;3.08;;;2.00;;
62933;SDS011;49038;47.600;19.242;2023-04-06T00:20:34;3.55;;;2.55;;
62933;SDS011;49038;47.600;19.242;2023-04-06T00:23:37;2.25;;;2.05;;
62933;SDS011;49038;47.600;19.242;2023-04-06T00:26:39;2.42;;;2.22;;
62933;SDS011;49038;47.600;19.242;2023-04-06T00:29:41;5.93;;;3.12;;
62933;SDS011;49038;47.600;19.242;2023-04-06T00:32:45;2.50;;;2.28;;
62933;SDS011;49038;47.600;19.242;2023-04-06T00:35:47;2.28;;;2.12;;
62933;SDS011;49038;47.600;19.242;2023-04-06T00:38:49;2.30;;;2.10;;
62933;SDS011;49038;47.600;19.242;2023-04-06T00:41:52;2.60;;;1.90;;
62933;SDS011;49038;47.600;19.242;2023-04-06T00:44:55;3.80;;;2.65;;
62933;SDS011;49038;47.600;19.242;2023-04-06T00:47:59;3.08;;;2.87;;
62933;SDS011;49038;47.600;19.242;2023-04-06T00:51:01;5.25;;;2.72;;
62933;SDS011;49038;47.600;19.242;2023-04-06T00:54:03;6.75;;;3.30;;
62933;SDS011;49038;47.600;19.242;2023-04-06T00:57:06;2.62;;;2.45;;
62933;SDS011;49038;47.600;19.242;2023-04-06T01:00:08;4.75;;;3.10;;
62933;SDS011;49038;47.600;19.242;2023-04-06T01:03:11;4.07;;;3.65;;
62933;SDS011;49038;47.600;19.242;2023-04-06T01:06:14;4.70;;;3.22;;
62933;SDS011;49038;47.600;19.242;2023-04-06T01:09:16;7.20;;;2.87;;
62933;SDS011;49038;47.600;19.242;2023-04-06T01:12:19;4.28;;;3.33;;
62933;SDS011;49038;47.600;19.242;2023-04-06T01:15:21;5.57;;;3.70;;
62933;SDS011;49038;47.600;19.242;2023-04-06T01:18:26;4.00;;;3.20;;
62933;SDS011;49038;47.600;19.242;2023-04-06T01:21:29;2.85;;;2.55;;
62933;SDS011;49038;47.600;19.242;2023-04-06T01:24:32;6.57;;;2.83;;
62933;SDS011;49038;47.600;19.242;2023-04-06T01:27:34;4.03;;;3.30;;
62933;SDS011;49038;47.600;19.242;2023-04-06T01:30:37;3.15;;;2.62;;
62933;SDS011;49038;47.600;19.242;2023-04-06T01:33:39;3.70;;;3.35;;
62933;SDS011;49038;47.600;19.242;2023-04-06T01:36:41;9.88;;;5.00;;
62933;SDS011;49038;47.600;19.242;2023-04-06T01:39:44;8.23;;;4.80;;
62933;SDS011;49038;47.600;19.242;2023-04-06T01:42:46;8.45;;;5.55;;
62933;SDS011;49038;47.600;19.242;2023-04-06T01:45:48;6.37;;;3.90;;
62933;SDS011;49038;47.600;19.242;2023-04-06T01:48:51;6.57;;;3.83;;
62933;SDS011;49038;47.600;19.242;2023-04-06T01:51:53;9.50;;;5.18;;
62933;SDS011;49038;47.600;19.242;2023-04-06T01:54:56;5.12;;;4.12;;
62933;SDS011;49038;47.600;19.242;2023-04-06T01:57:58;5.35;;;3.75;;
62933;SDS011;49038;47.600;19.242;2023-04-06T02:01:00;2.75;;;2.50;;
62933;SDS011;49038;47.600;19.242;2023-04-06T02:04:03;3.97;;;2.72;;
62933;SDS011;49038;47.600;19.242;2023-04-06T02:07:05;3.10;;;2.60;;
62933;SDS011;49038;47.600;19.242;2023-04-06T02:10:11;4.00;;;3.50;;
62933;SDS011;49038;47.600;19.242;2023-04-06T02:13:15;7.55;;;5.37;;
62933;SDS011;49038;47.600;19.242;2023-04-06T02:16:17;3.78;;;3.45;;
62933;SDS011;49038;47.600;19.242;2023-04-06T02:19:19;3.50;;;3.17;;
62933;SDS011;49038;47.600;19.242;2023-04-06T02:22:21;6.15;;;3.65;;
62933;SDS011;49038;47.600;19.242;2023-04-06T02:25:24;3.87;;;3.22;;
62933;SDS011;49038;47.600;19.242;2023-04-06T02:28:26;5.40;;;4.20;;
62933;SDS011;49038;47.600;19.242;2023-04-06T02:31:28;4.47;;;3.00;;
62933;SDS011;49038;47.600;19.242;2023-04-06T02:34:30;3.10;;;2.83;;
62933;SDS011;49038;47.600;19.242;2023-04-06T02:37:33;6.15;;;3.22;;
62933;SDS011;49038;47.600;19.242;2023-04-06T02:40:35;3.53;;;3.08;;
62933;SDS011;49038;47.600;19.242;2023-04-06T02:43:37;5.68;;;3.45;;
62933;SDS011;49038;47.600;19.242;2023-04-06T02:46:39;4.18;;;3.83;;
62933;SDS011;49038;47.600;19.242;2023-04-06T02:49:42;3.12;;;2.83;;
62933;SDS011;49038;47.600;19.242;2023-04-06T02:52:44;5.35;;;2.62;;
62933;SDS011;49038;47.600;19.242;2023-04-06T02:55:46;7.72;;;3.12;;
62933;SDS011;49038;47.600;19.242;2023-04-06T02:58:48;5.95;;;3.92;;
62933;SDS011;49038;47.600;19.242;2023-04-06T03:01:51;3.58;;;3.28;;
62933;SDS011;49038;47.600;19.242;2023-04-06T03:04:53;8.60;;;3.60;;
62933;SDS011;49038;47.600;19.242;2023-04-06T03:07:56;3.47;;;3.05;;
62933;SDS011;49038;47.600;19.242;2023-04-06T03:10:58;4.28;;;3.05;;
62933;SDS011;49038;47.600;19.242;2023-04-06T03:14:00;2.53;;;2.33;;
62933;SDS011;49038;47.600;19.242;2023-04-06T03:17:03;5.05;;;3.45;;
62933;SDS011;49038;47.600;19.242;2023-04-06T03:20:05;3.15;;;2.80;;
62933;SDS011;49038;47.600;19.242;2023-04-06T03:23:08;5.37;;;3.70;;
62933;SDS011;49038;47.600;19.242;2023-04-06T03:26:10;3.87;;;2.95;;
62933;SDS011;49038;47.600;19.242;2023-04-06T03:29:12;4.20;;;3.83;;
62933;SDS011;49038;47.600;19.242;2023-04-06T03:32:14;6.07;;;3.28;;
62933;SDS011;49038;47.600;19.242;2023-04-06T03:35:17;3.00;;;2.72;;
62933;SDS011;49038;47.600;19.242;2023-04-06T03:38:19;4.28;;;3.72;;
62933;SDS011;49038;47.600;19.242;2023-04-06T03:41:22;7.30;;;4.30;;
62933;SDS011;49038;47.600;19.242;2023-04-06T03:44:24;4.15;;;3.37;;
62933;SDS011;49038;47.600;19.242;2023-04-06T03:47:26;3.35;;;2.65;;
62933;SDS011;49038;47.600;19.242;2023-04-06T03:50:29;7.53;;;5.03;;
62933;SDS011;49038;47.600;19.242;2023-04-06T03:53:31;3.62;;;3.33;;
62933;SDS011;49038;47.600;19.242;2023-04-06T03:56:33;22.90;;;15.18;;
62933;SDS011;49038;47.600;19.242;2023-04-06T03:59:35;11.63;;;5.87;;
62933;SDS011;49038;47.600;19.242;2023-04-06T04:02:38;3.72;;;3.28;;
62933;SDS011;49038;47.600;19.242;2023-04-06T04:05:41;4.45;;;3.97;;
62933;SDS011;49038;47.600;19.242;2023-04-06T04:08:44;5.68;;;3.92;;
62933;SDS011;49038;47.600;19.242;2023-04-06T04:11:47;5.75;;;4.75;;
62933;SDS011;49038;47.600;19.242;2023-04-06T04:14:49;11.95;;;4.22;;
62933;SDS011;49038;47.600;19.242;2023-04-06T04:17:51;10.18;;;7.70;;
62933;SDS011;49038;47.600;19.242;2023-04-06T04:20:53;22.23;;;12.70;;
62933;SDS011;49038;47.600;19.242;2023-04-06T04:23:56;53.13;;;24.12;;
62933;SDS011;49038;47.600;19.242;2023-04-06T04:26:58;59.13;;;28.48;;
62933;SDS011;49038;47.600;19.242;2023-04-06T04:30:02;44.85;;;22.60;;
62933;SDS011;49038;47.600;19.242;2023-04-06T04:33:05;34.30;;;20.15;;
62933;SDS011;49038;47.600;19.242;2023-04-06T04:36:07;41.22;;;23.87;;
62933;SDS011;49038;47.600;19.242;2023-04-06T04:39:10;63.75;;;28.27;;
62933;SDS011;49038;47.600;19.242;2023-04-06T04:42:12;45.83;;;25.40;;
62933;SDS011;49038;47.600;19.242;2023-04-06T04:45:15;46.30;;;26.58;;
62933;SDS011;49038;47.600;19.242;2023-04-06T04:48:17;43.72;;;21.37;;
62933;SDS011;49038;47.600;19.242;2023-04-06T04:51:19;30.60;;;15.35;;
62933;SDS011;49038;47.600;19.242;2023-04-06T04:54:21;31.23;;;14.40;;
62933;SDS011;49038;47.600;19.242;2023-04-06T04:57:24;17.27;;;11.30;;
62933;SDS011;49038;47.600;19.242;2023-04-06T05:00:26;20.33;;;11.70;;
62933;SDS011;49038;47.600;19.242;2023-04-06T05:03:29;24.45;;;14.43;;
62933;SDS011;49038;47.600;19.242;2023-04-06T05:06:31;20.60;;;12.23;;
62933;SDS011;49038;47.600;19.242;2023-04-06T05:09:33;23.90;;;11.07;;
62933;SDS011;49038;47.600;19.242;2023-04-06T05:12:36;16.12;;;10.48;;
62933;SDS011;49038;47.600;19.242;2023-04-06T05:15:39;12.93;;;8.75;;
62933;SDS011;49038;47.600;19.242;2023-04-06T05:18:42;25.30;;;12.30;;
62933;SDS011;49038;47.600;19.242;2023-04-06T05:21:44;15.55;;;9.35;;
62933;SDS011;49038;47.600;19.242;2023-04-06T05:24:46;24.37;;;13.07;;
62933;SDS011;49038;47.600;19.242;2023-04-06T05:27:49;11.23;;;9.05;;
62933;SDS011;49038;47.600;19.242;2023-04-06T05:30:51;16.65;;;9.63;;
62933;SDS011;49038;47.600;19.242;2023-04-06T05:33:53;24.70;;;15.55;;
62933;SDS011;49038;47.600;19.242;2023-04-06T05:36:57;23.80;;;11.25;;
62933;SDS011;49038;47.600;19.242;2023-04-06T05:39:59;17.52;;;10.05;;
62933;SDS011;49038;47.600;19.242;2023-04-06T05:43:02;20.67;;;10.93;;
62933;SDS011;49038;47.600;19.242;2023-04-06T05:46:04;20.35;;;11.25;;
62933;SDS011;49038;47.600;19.242;2023-04-06T05:49:06;19.58;;;10.70;;
62933;SDS011;49038;47.600;19.242;2023-04-06T05:52:09;22.33;;;11.77;;
62933;SDS011;49038;47.600;19.242;2023-04-06T05:55:12;20.48;;;9.18;;
62933;SDS011;49038;47.600;19.242;2023-04-06T05:58:14;14.77;;;9.68;;
62933;SDS011;49038;47.600;19.242;2023-04-06T06:01:16;6.40;;;4.35;;
62933;SDS011;49038;47.600;19.242;2023-04-06T06:04:19;6.18;;;2.90;;
62933;SDS011;49038;47.600;19.242;2023-04-06T06:07:21;5.95;;;3.87;;
62933;SDS011;49038;47.600;19.242;2023-04-06T06:10:23;4.53;;;3.33;;
62933;SDS011;49038;47.600;19.242;2023-04-06T06:13:25;5.43;;;3.47;;
62933;SDS011;49038;47.600;19.242;2023-04-06T06:16:28;5.18;;;3.17;;
62933;SDS011;49038;47.600;19.242;2023-04-06T06:19:30;5.07;;;3.15;;
62933;SDS011;49038;47.600;19.242;2023-04-06T06:22:32;8.95;;;5.30;;
62933;SDS011;49038;47.600;19.242;2023-04-06T06:25:35;6.60;;;4.45;;
62933;SDS011;49038;47.600;19.242;2023-04-06T06:28:37;9.55;;;4.65;;
62933;SDS011;49038;47.600;19.242;2023-04-06T06:31:39;9.27;;;5.05;;
62933;SDS011;49038;47.600;19.242;2023-04-06T06:34:41;8.25;;;4.32;;
62933;SDS011;49038;47.600;19.242;2023-04-06T06:37:44;8.93;;;4.62;;
62933;SDS011;49038;47.600;19.242;2023-04-06T06:40:46;5.12;;;3.65;;
62933;SDS011;49038;47.600;19.242;2023-04-06T06:43:48;5.80;;;3.92;;
62933;SDS011;49038;47.600;19.242;2023-04-06T06:46:51;7.85;;;4.60;;
62933;SDS011;49038;47.600;19.242;2023-04-06T06:49:53;11.35;;;4.70;;
62933;SDS011;49038;47.600;19.242;2023-04-06T06:52:55;7.28;;;4.28;;
62933;SDS011;49038;47.600;19.242;2023-04-06T06:55:58;6.45;;;4.53;;
62933;SDS011;49038;47.600;19.242;2023-04-06T06:59:00;5.15;;;4.10;;
62933;SDS011;49038;47.600;19.242;2023-04-06T07:02:02;7.68;;;4.05;;
62933;SDS011;49038;47.600;19.242;2023-04-06T07:05:05;8.77;;;4.25;;
62933;SDS011;49038;47.600;19.242;2023-04-06T07:08:28;11.75;;;5.40;;
62933;SDS011;49038;47.600;19.242;2023-04-06T07:11:30;8.55;;;5.18;;
62933;SDS011;49038;47.600;19.242;2023-04-06T07:14:32;6.72;;;4.03;;
62933;SDS011;49038;47.600;19.242;2023-04-06T07:17:34;10.02;;;4.93;;
62933;SDS011;49038;47.600;19.242;2023-04-06T07:20:37;8.38;;;4.87;;
62933;SDS011;49038;47.600;19.242;2023-04-06T07:23:39;6.00;;;4.87;;
62933;SDS011;49038;47.600;19.242;2023-04-06T07:26:42;7.40;;;4.47;;
62933;SDS011;49038;47.600;19.242;2023-04-06T07:29:44;10.50;;;4.82;;
62933;SDS011;49038;47.600;19.242;2023-04-06T07:32:46;7.75;;;4.15;;
62933;SDS011;49038;47.600;19.242;2023-04-06T07:35:48;7.70;;;4.65;;
62933;SDS011;49038;47.600;19.242;2023-04-06T07:38:51;11.68;;;5.10;;
62933;SDS011;49038;47.600;19.242;2023-04-06T07:41:53;9.95;;;5.30;;
62933;SDS011;49038;47.600;19.242;2023-04-06T07:44:56;6.78;;;4.05;;
62933;SDS011;49038;47.600;19.242;2023-04-06T07:47:58;10.45;;;4.68;;
62933;SDS011;49038;47.600;19.242;2023-04-06T07:51:01;5.82;;;4.18;;
62933;SDS011;49038;47.600;19.242;2023-04-06T07:54:06;5.03;;;3.72;;
62933;SDS011;49038;47.600;19.242;2023-04-06T07:57:09;4.85;;;3.80;;
62933;SDS011;49038;47.600;19.242;2023-04-06T08:00:12;5.95;;;3.78;;
62933;SDS011;49038;47.600;19.242;2023-04-06T08:03:14;3.80;;;3.08;;
62933;SDS011;49038;47.600;19.242;2023-04-06T08:06:18;4.30;;;3.55;;
62933;SDS011;49038;47.600;19.242;2023-04-06T08:09:21;5.78;;;3.40;;
62933;SDS011;49038;47.600;19.242;2023-04-06T08:12:23;7.82;;;3.62;;
62933;SDS011;49038;47.600;19.242;2023-04-06T08:15:25;9.43;;;3.53;;
62933;SDS011;49038;47.600;19.242;2023-04-06T08:18:28;4.03;;;3.10;;
62933;SDS011;49038;47.600;19.242;2023-04-06T08:21:31;5.62;;;3.72;;
62933;SDS011;49038;47.600;19.242;2023-04-06T08:24:33;4.03;;;2.97;;
62933;SDS011;49038;47.600;19.242;2023-04-06T08:27:36;4.85;;;4.03;;
62933;SDS011;49038;47.600;19.242;2023-04-06T08:30:41;6.32;;;3.62;;
62933;SDS011;49038;47.600;19.242;2023-04-06T08:33:44;4.00;;;3.50;;
62933;SDS011;49038;47.600;19.242;2023-04-06T08:36:46;2.58;;;2.37;;
62933;SDS011;49038;47.600;19.242;2023-04-06T08:39:49;4.62;;;2.62;;
62933;SDS011;49038;47.600;19.242;2023-04-06T08:42:54;11.15;;;4.65;;
62933;SDS011;49038;47.600;19.242;2023-04-06T08:45:58;9.43;;;3.67;;
62933;SDS011;49038;47.600;19.242;2023-04-06T08:49:01;4.07;;;3.37;;
62933;SDS011;49038;47.600;19.242;2023-04-06T08:52:06;5.25;;;2.75;;
62933;SDS011;49038;47.600;19.242;2023-04-06T08:55:09;4.53;;;3.50;;
62933;SDS011;49038;47.600;19.242;2023-04-06T08:58:12;4.20;;;2.97;;
62933;SDS011;49038;47.600;19.242;2023-04-06T09:01:28;3.90;;;2.75;;
62933;SDS011;49038;47.600;19.242;2023-04-06T09:04:32;3.10;;;2.53;;
62933;SDS011;49038;47.600;19.242;2023-04-06T09:07:38;8.65;;;5.28;;
62933;SDS011;49038;47.600;19.242;2023-04-06T09:10:41;4.70;;;3.10;;
62933;SDS011;49038;47.600;19.242;2023-04-06T09:13:55;4.55;;;3.30;;
62933;SDS011;49038;47.600;19.242;2023-04-06T09:16:59;4.35;;;3.33;;
62933;SDS011;49038;47.600;19.242;2023-04-06T09:20:02;3.58;;;2.95;;
62933;SDS011;49038;47.600;19.242;2023-04-06T09:23:05;4.10;;;3.03;;
62933;SDS011;49038;47.600;19.242;2023-04-06T09:26:14;6.97;;;3.15;;
62933;SDS011;49038;47.600;19.242;2023-04-06T09:29:23;7.43;;;3.95;;
62933;SDS011;49038;47.600;19.242;2023-04-06T09:32:28;6.28;;;4.70;;
62933;SDS011;49038;47.600;19.242;2023-04-06T09:35:31;6.12;;;4.40;;
62933;SDS011;49038;47.600;19.242;2023-04-06T09:38:36;4.70;;;3.40;;
62933;SDS011;49038;47.600;19.242;2023-04-06T09:41:40;6.97;;;4.32;;
62933;SDS011;49038;47.600;19.242;2023-04-06T09:44:42;5.43;;;4.37;;
62933;SDS011;49038;47.600;19.242;2023-04-06T09:47:44;9.95;;;3.67;;
62933;SDS011;49038;47.600;19.242;2023-04-06T09:50:49;5.45;;;3.95;;
62933;SDS011;49038;47.600;19.242;2023-04-06T09:53:52;6.07;;;3.35;;
62933;SDS011;49038;47.600;19.242;2023-04-06T09:57:01;5.97;;;3.47;;
62933;SDS011;49038;47.600;19.242;2023-04-06T10:00:09;6.10;;;3.37;;
62933;SDS011;49038;47.600;19.242;2023-04-06T10:03:16;8.02;;;3.10;;
62933;SDS011;49038;47.600;19.242;2023-04-06T10:06:33;3.75;;;2.95;;
62933;SDS011;49038;47.600;19.242;2023-04-06T10:09:37;10.13;;;2.67;;
62933;SDS011;49038;47.600;19.242;2023-04-06T10:12:39;6.00;;;2.75;;
62933;SDS011;49038;47.600;19.242;2023-04-06T10:15:42;10.52;;;3.05;;
62933;SDS011;49038;47.600;19.242;2023-04-06T10:18:45;3.58;;;2.78;;
62933;SDS011;49038;47.600;19.242;2023-04-06T10:21:50;3.30;;;2.62;;
62933;SDS011;49038;47.600;19.242;2023-04-06T10:24:53;11.20;;;4.35;;
62933;SDS011;49038;47.600;19.242;2023-04-06T10:27:58;6.25;;;2.70;;
62933;SDS011;49038;47.600;19.242;2023-04-06T10:31:03;5.20;;;2.90;;
62933;SDS011;49038;47.600;19.242;2023-04-06T10:34:06;4.30;;;2.45;;
62933;SDS011;49038;47.600;19.242;2023-04-06T10:37:16;5.32;;;2.45;;
62933;SDS011;49038;47.600;19.242;2023-04-06T10:40:24;3.17;;;2.47;;
62933;SDS011;49038;47.600;19.242;2023-04-06T10:43:32;3.53;;;2.58;;
62933;SDS011;49038;47.600;19.242;2023-04-06T10:46:36;4.32;;;3.08;;
62933;SDS011;49038;47.600;19.242;2023-04-06T10:49:39;9.68;;;3.12;;
62933;SDS011;49038;47.600;19.242;2023-04-06T10:52:41;6.75;;;3.70;;
62933;SDS011;49038;47.600;19.242;2023-04-06T10:55:43;3.55;;;2.90;;
62933;SDS011;49038;47.600;19.242;2023-04-06T10:58:47;4.43;;;3.70;;
62933;SDS011;49038;47.600;19.242;2023-04-06T11:01:50;5.65;;;3.65;;
62933;SDS011;49038;47.600;19.242;2023-04-06T11:04:54;3.08;;;2.10;;
62933;SDS011;49038;47.600;19.242;2023-04-06T11:07:57;3.70;;;2.55;;
62933;SDS011;49038;47.600;19.242;2023-04-06T11:11:09;4.47;;;3.20;;
62933;SDS011;49038;47.600;19.242;2023-04-06T11:14:17;3.78;;;2.33;;
62933;SDS011;49038;47.600;19.242;2023-04-06T11:17:25;4.40;;;2.90;;
62933;SDS011;49038;47.600;19.242;2023-04-06T11:20:28;4.18;;;2.28;;
62933;SDS011;49038;47.600;19.242;2023-04-06T11:23:30;4.70;;;2.72;;
62933;SDS011;49038;47.600;19.242;2023-04-06T11:26:36;3.62;;;2.95;;
62933;SDS011;49038;47.600;19.242;2023-04-06T11:29:50;8.60;;;4.35;;
62933;SDS011;49038;47.600;19.242;2023-04-06T11:32:59;4.47;;;2.80;;
62933;SDS011;49038;47.600;19.242;2023-04-06T11:36:03;4.05;;;3.33;;
62933;SDS011;49038;47.600;19.242;2023-04-06T11:39:05;3.83;;;2.42;;
62933;SDS011;49038;47.600;19.242;2023-04-06T11:42:08;5.97;;;2.78;;
62933;SDS011;49038;47.600;19.242;2023-04-06T11:45:10;3.15;;;2.40;;
62933;SDS011;49038;47.600;19.242;2023-04-06T11:48:18;4.30;;;2.53;;
62933;SDS011;49038;47.600;19.242;2023-04-06T11:51:22;3.85;;;2.70;;
62933;SDS011;49038;47.600;19.242;2023-04-06T11:54:32;3.17;;;2.33;;
62933;SDS011;49038;47.600;19.242;2023-04-06T11:57:35;4.87;;;2.80;;
62933;SDS011;49038;47.600;19.242;2023-04-06T12:00:37;20.90;;;8.18;;
62933;SDS011;49038;47.600;19.242;2023-04-06T12:03:39;7.70;;;4.57;;
62933;SDS011;49038;47.600;19.242;2023-04-06T12:06:42;13.93;;;5.65;;
62933;SDS011;49038;47.600;19.242;2023-04-06T12:09:44;10.95;;;3.00;;
62933;SDS011;49038;47.600;19.242;2023-04-06T12:12:47;2.83;;;2.40;;
62933;SDS011;49038;47.600;19.242;2023-04-06T12:15:49;8.18;;;3.08;;
62933;SDS011;49038;47.600;19.242;2023-04-06T12:18:52;4.40;;;3.03;;
62933;SDS011;49038;47.600;19.242;2023-04-06T12:21:54;5.18;;;3.08;;
62933;SDS011;49038;47.600;19.242;2023-04-06T12:24:56;5.05;;;2.75;;
62933;SDS011;49038;47.600;19.242;2023-04-06T12:27:58;2.45;;;2.25;;
62933;SDS011;49038;47.600;19.242;2023-04-06T12:31:01;3.90;;;2.55;;
62933;SDS011;49038;47.600;19.242;2023-04-06T12:34:03;3.67;;;2.50;;
62933;SDS011;49038;47.600;19.242;2023-04-06T12:37:06;5.20;;;2.87;;
62933;SDS011;49038;47.600;19.242;2023-04-06T12:40:08;4.22;;;2.58;;
62933;SDS011;49038;47.600;19.242;2023-04-06T12:43:12;4.97;;;2.75;;
62933;SDS011;49038;47.600;19.242;2023-04-06T12:46:15;4.43;;;2.80;;
62933;SDS011;49038;47.600;19.242;2023-04-06T12:49:17;5.00;;;2.55;;
62933;SDS011;49038;47.600;19.242;2023-04-06T12:52:20;4.70;;;2.95;;
62933;SDS011;49038;47.600;19.242;2023-04-06T12:55:23;2.62;;;1.98;;
62933;SDS011;49038;47.600;19.242;2023-04-06T12:58:25;8.50;;;3.90;;
62933;SDS011;49038;47.600;19.242;2023-04-06T13:01:31;4.03;;;3.10;;
62933;SDS011;49038;47.600;19.242;2023-04-06T13:04:33;5.07;;;3.85;;
62933;SDS011;49038;47.600;19.242;2023-04-06T13:07:35;4.05;;;2.87;;
62933;SDS011;49038;47.600;19.242;2023-04-06T13:10:38;3.33;;;2.92;;
62933;SDS011;49038;47.600;19.242;2023-04-06T13:13:40;5.47;;;3.10;;
62933;SDS011;49038;47.600;19.242;2023-04-06T13:16:43;9.10;;;4.20;;
62933;SDS011;49038;47.600;19.242;2023-04-06T13:19:45;6.68;;;3.55;;
62933;SDS011;49038;47.600;19.242;2023-04-06T13:22:47;6.10;;;3.20;;
62933;SDS011;49038;47.600;19.242;2023-04-06T13:26:02;4.50;;;3.17;;
62933;SDS011;49038;47.600;19.242;2023-04-06T13:29:06;6.32;;;2.85;;
62933;SDS011;49038;47.600;19.242;2023-04-06T13:32:08;4.25;;;2.78;;
62933;SDS011;49038;47.600;19.242;2023-04-06T13:35:12;5.12;;;2.83;;
62933;SDS011;49038;47.600;19.242;2023-04-06T13:38:14;4.80;;;2.87;;
62933;SDS011;49038;47.600;19.242;2023-04-06T13:41:19;9.82;;;3.12;;
62933;SDS011;49038;47.600;19.242;2023-04-06T13:44:22;6.87;;;3.15;;
62933;SDS011;49038;47.600;19.242;2023-04-06T13:47:25;6.50;;;4.10;;
62933;SDS011;49038;47.600;19.242;2023-04-06T13:50:28;5.60;;;2.92;;
62933;SDS011;49038;47.600;19.242;2023-04-06T13:53:31;4.72;;;2.95;;
62933;SDS011;49038;47.600;19.242;2023-04-06T13:56:33;6.95;;;3.22;;
62933;SDS011;49038;47.600;19.242;2023-04-06T13:59:35;6.03;;;2.80;;
62933;SDS011;49038;47.600;19.242;2023-04-06T14:02:38;11.75;;;6.55;;
62933;SDS011;49038;47.600;19.242;2023-04-06T14:05:41;6.70;;;4.10;;
62933;SDS011;49038;47.600;19.242;2023-04-06T14:08:43;44.85;;;12.52;;
62933;SDS011;49038;47.600;19.242;2023-04-06T14:11:45;7.37;;;3.97;;
62933;SDS011;49038;47.600;19.242;2023-04-06T14:14:47;7.53;;;3.37;;
62933;SDS011;49038;47.600;19.242;2023-04-06T14:17:50;6.57;;;3.20;;
62933;SDS011;49038;47.600;19.242;2023-04-06T14:20:54;2.50;;;2.30;;
62933;SDS011;49038;47.600;19.242;2023-04-06T14:23:57;3.35;;;2.62;;
62933;SDS011;49038;47.600;19.242;2023-04-06T14:27:00;6.20;;;2.67;;
62933;SDS011;49038;47.600;19.242;2023-04-06T14:30:04;4.30;;;2.95;;
62933;SDS011;49038;47.600;19.242;2023-04-06T14:33:07;5.03;;;2.58;;
62933;SDS011;49038;47.600;19.242;2023-04-06T14:36:09;5.72;;;2.90;;
62933;SDS011;49038;47.600;19.242;2023-04-06T14:39:12;10.57;;;4.53;;
62933;SDS011;49038;47.600;19.242;2023-04-06T14:42:14;4.47;;;3.28;;
62933;SDS011;49038;47.600;19.242;2023-04-06T14:45:18;15.55;;;3.62;;
62933;SDS011;49038;47.600;19.242;2023-04-06T14:48:23;8.43;;;3.75;;
62933;SDS011;49038;47.600;19.242;2023-04-06T14:51:25;1.62;;;1.52;;
62933;SDS011;49038;47.600;19.242;2023-04-06T14:54:30;4.15;;;2.85;;
62933;SDS011;49038;47.600;19.242;2023-04-06T14:57:33;3.87;;;2.42;;
62933;SDS011;49038;47.600;19.242;2023-04-06T15:00:36;3.65;;;2.35;;
62933;SDS011;49038;47.600;19.242;2023-04-06T15:03:39;4.37;;;2.70;;
62933;SDS011;49038;47.600;19.242;2023-04-06T15:06:42;4.18;;;3.28;;
62933;SDS011;49038;47.600;19.242;2023-04-06T15:09:44;4.53;;;2.90;;
62933;SDS011;49038;47.600;19.242;2023-04-06T15:12:46;6.10;;;3.87;;
62933;SDS011;49038;47.600;19.242;2023-04-06T15:15:49;3.15;;;2.30;;
62933;SDS011;49038;47.600;19.242;2023-04-06T15:18:53;6.00;;;3.10;;
62933;SDS011;49038;47.600;19.242;2023-04-06T15:21:55;3.55;;;2.50;;
62933;SDS011;49038;47.600;19.242;2023-04-06T15:24:59;3.45;;;2.65;;
62933;SDS011;49038;47.600;19.242;2023-04-06T15:28:01;6.68;;;2.33;;
62933;SDS011;49038;47.600;19.242;2023-04-06T15:31:12;5.60;;;2.33;;
62933;SDS011;49038;47.600;19.242;2023-04-06T15:34:32;6.05;;;2.53;;
62933;SDS011;49038;47.600;19.242;2023-04-06T15:37:36;5.78;;;2.92;;
62933;SDS011;49038;47.600;19.242;2023-04-06T15:40:43;5.00;;;2.50;;
62933;SDS011;49038;47.600;19.242;2023-04-06T15:43:47;5.05;;;2.87;;
62933;SDS011;49038;47.600;19.242;2023-04-06T15:46:50;6.50;;;3.97;;
62933;SDS011;49038;47.600;19.242;2023-04-06T15:49:54;10.02;;;3.50;;
62933;SDS011;49038;47.600;19.242;2023-04-06T15:52:56;8.15;;;4.37;;
62933;SDS011;49038;47.600;19.242;2023-04-06T15:55:59;9.02;;;4.40;;
62933;SDS011;49038;47.600;19.242;2023-04-06T15:59:05;4.72;;;3.72;;
62933;SDS011;49038;47.600;19.242;2023-04-06T16:02:07;4.78;;;3.15;;
62933;SDS011;49038;47.600;19.242;2023-04-06T16:05:10;8.57;;;3.78;;
62933;SDS011;49038;47.600;19.242;2023-04-06T16:08:12;10.18;;;3.40;;
62933;SDS011;49038;47.600;19.242;2023-04-06T16:11:17;3.75;;;3.00;;
62933;SDS011;49038;47.600;19.242;2023-04-06T16:14:19;7.95;;;3.65;;
62933;SDS011;49038;47.600;19.242;2023-04-06T16:17:22;5.97;;;3.00;;
62933;SDS011;49038;47.600;19.242;2023-04-06T16:20:24;3.95;;;2.75;;
62933;SDS011;49038;47.600;19.242;2023-04-06T16:23:27;9.40;;;2.60;;
62933;SDS011;49038;47.600;19.242;2023-04-06T16:26:29;6.10;;;3.10;;
62933;SDS011;49038;47.600;19.242;2023-04-06T16:29:33;5.07;;;2.92;;
62933;SDS011;49038;47.600;19.242;2023-04-06T16:32:36;6.93;;;3.80;;
62933;SDS011;49038;47.600;19.242;2023-04-06T16:35:42;4.50;;;2.65;;
62933;SDS011;49038;47.600;19.242;2023-04-06T16:38:45;7.62;;;3.50;;
62933;SDS011;49038;47.600;19.242;2023-04-06T16:41:47;4.05;;;2.85;;
62933;SDS011;49038;47.600;19.242;2023-04-06T16:44:49;7.37;;;3.97;;
62933;SDS011;49038;47.600;19.242;2023-04-06T16:47:52;4.87;;;3.10;;
62933;SDS011;49038;47.600;19.242;2023-04-06T16:50:54;4.40;;;2.85;;
62933;SDS011;49038;47.600;19.242;2023-04-06T16:53:56;5.22;;;2.70;;
62933;SDS011;49038;47.600;19.242;2023-04-06T16:57:00;5.25;;;3.12;;
62933;SDS011;49038;47.600;19.242;2023-04-06T17:00:05;8.90;;;3.30;;
62933;SDS011;49038;47.600;19.242;2023-04-06T17:03:08;6.35;;;3.47;;
62933;SDS011;49038;47.600;19.242;2023-04-06T17:06:11;4.90;;;3.05;;
62933;SDS011;49038;47.600;19.242;2023-04-06T17:09:13;4.07;;;3.28;;
62933;SDS011;49038;47.600;19.242;2023-04-06T17:12:16;5.18;;;4.18;;
62933;SDS011;49038;47.600;19.242;2023-04-06T17:15:18;8.10;;;4.70;;
62933;SDS011;49038;47.600;19.242;2023-04-06T17:18:20;4.68;;;3.12;;
62933;SDS011;49038;47.600;19.242;2023-04-06T17:21:22;7.32;;;3.95;;
62933;SDS011;49038;47.600;19.242;2023-04-06T17:24:25;6.30;;;3.50;;
62933;SDS011;49038;47.600;19.242;2023-04-06T17:27:28;5.43;;;3.60;;
62933;SDS011;49038;47.600;19.242;2023-04-06T17:30:30;7.93;;;3.15;;
62933;SDS011;49038;47.600;19.242;2023-04-06T17:33:36;3.72;;;2.97;;
62933;SDS011;49038;47.600;19.242;2023-04-06T17:36:39;8.05;;;3.87;;
62933;SDS011;49038;47.600;19.242;2023-04-06T17:39:42;5.70;;;4.00;;
62933;SDS011;49038;47.600;19.242;2023-04-06T17:42:45;3.70;;;3.40;;
62933;SDS011;49038;47.600;19.242;2023-04-06T17:45:47;12.85;;;6.05;;
62933;SDS011;49038;47.600;19.242;2023-04-06T17:48:52;7.05;;;4.20;;
62933;SDS011;49038;47.600;19.242;2023-04-06T17:51:54;10.35;;;5.45;;
62933;SDS011;49038;47.600;19.242;2023-04-06T17:54:56;7.80;;;4.87;;
62933;SDS011;49038;47.600;19.242;2023-04-06T17:57:59;8.32;;;5.45;;
62933;SDS011;49038;47.600;19.242;2023-04-06T18:01:07;7.95;;;5.47;;
62933;SDS011;49038;47.600;19.242;2023-04-06T18:04:14;7.55;;;4.47;;